createdAt,value
2019-05-25T00:00:28.544Z,135.00
2019-05-25T00:01:28.540Z,135.00
2019-05-25T00:02:28.531Z,135.00
2019-05-25T00:03:28.540Z,135.00
2019-05-25T00:04:28.542Z,135.00
2019-05-25T00:05:28.529Z,135.00
2019-05-25T00:06:28.545Z,135.00
2019-05-25T00:07:28.535Z,135.00
2019-05-25T00:08:28.548Z,135.00
2019-05-25T00:09:28.566Z,135.00
2019-05-25T00:10:28.548Z,135.00
2019-05-25T00:11:28.561Z,135.00
2019-05-25T00:12:28.566Z,135.00
2019-05-25T00:13:28.564Z,135.00
2019-05-25T00:14:28.568Z,135.00
2019-05-25T00:15:28.550Z,135.00
2019-05-25T00:16:28.550Z,135.00
2019-05-25T00:17:28.566Z,135.00
2019-05-25T00:18:28.554Z,135.00
2019-05-25T00:19:28.551Z,135.00
2019-05-25T00:20:28.563Z,135.00
2019-05-25T00:21:28.566Z,135.00
2019-05-25T00:22:28.568Z,135.00
2019-05-25T00:23:28.570Z,135.00
2019-05-25T00:24:28.577Z,135.00
2019-05-25T00:25:28.549Z,135.00
2019-05-25T00:26:28.554Z,135.00
2019-05-25T00:27:28.566Z,135.00
2019-05-25T00:28:28.558Z,135.00
2019-05-25T00:29:28.550Z,135.00
2019-05-25T00:30:28.578Z,135.00
2019-05-25T00:31:28.558Z,135.00
2019-05-25T00:32:28.556Z,135.00
2019-05-25T00:33:28.574Z,135.00
2019-05-25T00:34:28.568Z,135.00
2019-05-25T00:35:28.550Z,135.00
2019-05-25T00:36:28.575Z,135.00
2019-05-25T00:37:28.561Z,135.00
2019-05-25T00:38:28.567Z,135.00
2019-05-25T00:39:28.583Z,135.00
2019-05-25T00:40:28.574Z,135.00
2019-05-25T00:41:28.594Z,135.00
2019-05-25T00:42:28.582Z,135.00
2019-05-25T00:43:28.581Z,135.00
2019-05-25T00:44:28.584Z,135.00
2019-05-25T00:45:28.582Z,135.00
2019-05-25T00:46:28.589Z,135.00
2019-05-25T00:47:28.561Z,135.00
2019-05-25T00:48:28.586Z,135.00
2019-05-25T00:49:28.564Z,135.00
2019-05-25T00:50:28.575Z,135.00
2019-05-25T00:51:28.596Z,135.00
2019-05-25T00:52:28.605Z,135.00
2019-05-25T00:53:28.571Z,135.00
2019-05-25T00:54:28.587Z,135.00
2019-05-25T00:55:28.586Z,135.00
2019-05-25T00:56:28.553Z,135.00
2019-05-25T00:57:28.602Z,135.00
2019-05-25T00:58:28.597Z,135.00
2019-05-25T00:59:28.601Z,135.00
2019-05-25T01:00:28.589Z,135.00
2019-05-25T01:01:28.568Z,135.00
2019-05-25T01:02:28.547Z,135.00
2019-05-25T01:03:28.600Z,135.00
2019-05-25T01:04:28.583Z,135.00
2019-05-25T01:05:28.618Z,135.00
2019-05-25T01:06:28.603Z,135.00
2019-05-25T01:07:28.609Z,135.00
2019-05-25T01:08:28.565Z,135.00
2019-05-25T01:09:28.612Z,135.00
2019-05-25T01:10:28.622Z,135.00
2019-05-25T01:11:28.583Z,135.00
2019-05-25T01:12:28.605Z,135.00
2019-05-25T01:13:28.609Z,135.00
2019-05-25T01:14:28.565Z,135.00
2019-05-25T01:15:28.605Z,135.00
2019-05-25T01:16:28.658Z,135.00
2019-05-25T01:17:28.586Z,135.00
2019-05-25T01:18:28.604Z,135.00
2019-05-25T01:19:28.587Z,135.00
2019-05-25T01:20:28.584Z,135.00
2019-05-25T01:21:28.605Z,135.00
2019-05-25T01:22:28.624Z,135.00
2019-05-25T01:23:28.593Z,135.00
2019-05-25T01:24:43.247Z,135.00
2019-05-25T01:25:28.617Z,135.00
2019-05-25T01:26:28.590Z,135.00
2019-05-25T01:27:28.606Z,135.00
2019-05-25T01:28:28.635Z,135.00
2019-05-25T01:29:28.601Z,135.00
2019-05-25T01:30:28.619Z,135.00
2019-05-25T01:31:28.595Z,135.00
2019-05-25T01:32:28.577Z,135.00
2019-05-25T01:33:28.635Z,135.00
2019-05-25T01:34:28.623Z,135.00
2019-05-25T01:35:28.594Z,135.00
2019-05-25T01:36:28.625Z,135.00
2019-05-25T01:37:28.618Z,135.00
2019-05-25T01:38:28.632Z,135.00
2019-05-25T01:39:28.620Z,135.00
2019-05-25T01:40:28.620Z,135.00
2019-05-25T01:41:28.632Z,135.00
2019-05-25T01:42:28.646Z,135.00
2019-05-25T01:43:28.628Z,135.00
2019-05-25T01:44:28.606Z,135.00
2019-05-25T01:45:28.649Z,135.00
2019-05-25T01:46:28.659Z,135.00
2019-05-25T01:47:28.625Z,135.00
2019-05-25T01:48:28.635Z,135.00
2019-05-25T01:49:28.621Z,135.00
2019-05-25T01:50:28.583Z,135.00
2019-05-25T01:51:28.677Z,135.00
2019-05-25T01:52:28.638Z,135.00
2019-05-25T01:53:28.633Z,135.00
2019-05-25T01:54:28.649Z,135.00
2019-05-25T01:55:28.617Z,135.00
2019-05-25T01:56:28.605Z,135.00
2019-05-25T01:57:28.646Z,135.00
2019-05-25T01:58:28.632Z,135.00
2019-05-25T01:59:28.650Z,135.00
2019-05-25T02:00:28.649Z,135.00
2019-05-25T02:01:28.636Z,135.00
2019-05-25T02:02:28.623Z,135.00
2019-05-25T02:03:28.647Z,135.00
2019-05-25T02:04:28.653Z,135.00
2019-05-25T02:05:28.640Z,135.00
2019-05-25T02:06:28.654Z,135.00
2019-05-25T02:07:28.632Z,135.00
2019-05-25T02:08:28.641Z,135.00
2019-05-25T02:09:28.670Z,135.00
2019-05-25T02:10:28.663Z,135.00
2019-05-25T02:11:28.617Z,135.00
2019-05-25T02:12:28.656Z,135.00
2019-05-25T02:13:28.635Z,135.00
2019-05-25T02:14:28.640Z,135.00
2019-05-25T02:15:28.641Z,135.00
2019-05-25T02:16:28.642Z,124.71
2019-05-25T02:17:28.653Z,90.00
2019-05-25T02:18:28.662Z,90.00
2019-05-25T02:19:28.639Z,90.00
2019-05-25T02:20:28.649Z,90.00
2019-05-25T02:21:28.657Z,90.00
2019-05-25T02:22:28.646Z,90.00
2019-05-25T02:23:28.681Z,90.00
2019-05-25T02:24:28.660Z,87.47
2019-05-25T02:25:28.658Z,270.00
2019-05-25T02:26:28.630Z,270.00
2019-05-25T02:27:28.657Z,270.00
2019-05-25T02:28:28.657Z,270.00
2019-05-25T02:29:28.674Z,270.00
2019-05-25T02:30:28.696Z,270.00
2019-05-25T02:31:28.657Z,270.00
2019-05-25T02:32:28.638Z,270.00
2019-05-25T02:33:28.668Z,270.00
2019-05-25T02:34:28.667Z,270.00
2019-05-25T02:35:28.701Z,270.00
2019-05-25T02:36:28.665Z,270.00
2019-05-25T02:37:28.666Z,270.00
2019-05-25T02:38:28.645Z,270.00
2019-05-25T02:39:28.672Z,270.00
2019-05-25T02:40:28.857Z,270.00
2019-05-25T02:41:28.676Z,270.00
2019-05-25T02:42:28.669Z,270.00
2019-05-25T02:43:28.695Z,270.00
2019-05-25T02:44:28.660Z,270.00
2019-05-25T02:45:28.690Z,270.00
2019-05-25T02:46:28.681Z,270.00
2019-05-25T02:47:28.691Z,270.00
2019-05-25T02:48:28.676Z,270.00
2019-05-25T02:49:28.691Z,270.00
2019-05-25T02:50:28.646Z,270.00
2019-05-25T02:51:28.680Z,270.00
2019-05-25T02:52:28.691Z,270.00
2019-05-25T02:53:28.674Z,270.00
2019-05-25T02:54:28.678Z,270.00
2019-05-25T02:55:34.409Z,270.00
2019-05-25T02:56:28.660Z,270.00
2019-05-25T02:57:28.683Z,300.80
2019-05-25T02:58:28.680Z,315.00
2019-05-25T02:59:28.690Z,315.00
2019-05-25T03:00:28.692Z,315.00
2019-05-25T03:01:28.682Z,315.00
2019-05-25T03:02:28.677Z,315.00
2019-05-25T03:03:28.689Z,315.00
2019-05-25T03:04:28.695Z,315.00
2019-05-25T03:05:28.704Z,315.00
2019-05-25T03:06:28.679Z,315.00
2019-05-25T03:07:28.690Z,315.00
2019-05-25T03:08:28.685Z,315.00
2019-05-25T03:09:28.694Z,315.00
2019-05-25T03:10:28.691Z,315.00
2019-05-25T03:11:28.698Z,315.00
2019-05-25T03:12:28.695Z,315.00
2019-05-25T03:13:28.690Z,315.00
2019-05-25T03:14:28.681Z,315.00
2019-05-25T03:15:28.704Z,315.00
2019-05-25T03:16:28.708Z,315.00
2019-05-25T03:17:28.718Z,315.00
2019-05-25T03:18:28.714Z,315.00
2019-05-25T03:19:28.685Z,315.00
2019-05-25T03:20:28.685Z,315.00
2019-05-25T03:21:28.697Z,315.00
2019-05-25T03:22:28.705Z,49.68
2019-05-25T03:23:28.704Z,90.00
2019-05-25T03:24:28.710Z,90.00
2019-05-25T03:25:28.697Z,90.00
2019-05-25T03:26:28.666Z,90.00
2019-05-25T03:27:28.702Z,90.00
2019-05-25T03:28:28.696Z,90.00
2019-05-25T03:29:28.711Z,90.00
2019-05-25T03:30:28.717Z,90.00
2019-05-25T03:31:28.708Z,88.28
2019-05-25T03:32:28.705Z,320.11
2019-05-25T03:33:28.709Z,315.00
2019-05-25T03:34:28.726Z,315.00
2019-05-25T03:35:28.714Z,315.00
2019-05-25T03:36:28.714Z,315.00
2019-05-25T03:37:28.749Z,315.00
2019-05-25T03:38:28.703Z,315.00
2019-05-25T03:39:28.729Z,315.00
2019-05-25T03:40:28.731Z,315.00
2019-05-25T03:41:28.718Z,315.00
2019-05-25T03:42:28.717Z,296.23
2019-05-25T03:43:28.703Z,135.00
2019-05-25T03:44:28.711Z,135.00
2019-05-25T03:45:28.717Z,135.00
2019-05-25T03:46:28.715Z,135.00
2019-05-25T03:47:28.692Z,135.00
2019-05-25T03:48:28.731Z,135.00
2019-05-25T03:49:28.713Z,135.00
2019-05-25T03:50:28.707Z,135.00
2019-05-25T03:51:28.742Z,135.00
2019-05-25T03:52:28.740Z,135.00
2019-05-25T03:53:28.757Z,135.00
2019-05-25T03:54:28.729Z,135.00
2019-05-25T03:55:28.697Z,135.00
2019-05-25T03:56:28.688Z,135.00
2019-05-25T03:57:28.727Z,135.00
2019-05-25T03:58:28.729Z,135.00
2019-05-25T03:59:28.727Z,135.00
2019-05-25T04:00:28.733Z,135.00
2019-05-25T04:01:28.735Z,135.00
2019-05-25T04:02:28.725Z,135.00
2019-05-25T04:03:28.733Z,98.98
2019-05-25T04:04:28.722Z,90.00
2019-05-25T04:05:28.739Z,90.00
2019-05-25T04:06:28.735Z,90.00
2019-05-25T04:07:28.731Z,90.00
2019-05-25T04:08:28.709Z,45.10
2019-05-25T04:09:28.812Z,45.00
2019-05-25T04:10:28.739Z,45.00
2019-05-25T04:11:28.743Z,45.00
2019-05-25T04:12:28.757Z,45.00
2019-05-25T04:13:28.708Z,45.00
2019-05-25T04:14:28.742Z,45.00
2019-05-25T04:15:28.736Z,45.00
2019-05-25T04:16:28.742Z,45.00
2019-05-25T04:17:28.732Z,45.00
2019-05-25T04:18:28.751Z,45.00
2019-05-25T04:19:28.718Z,45.00
2019-05-25T04:20:28.746Z,45.00
2019-05-25T04:21:28.741Z,45.00
2019-05-25T04:22:28.752Z,45.00
2019-05-25T04:23:28.765Z,45.00
2019-05-25T04:24:28.744Z,45.00
2019-05-25T04:25:28.720Z,45.00
2019-05-25T04:26:28.738Z,45.00
2019-05-25T04:27:28.750Z,45.00
2019-05-25T04:28:28.752Z,45.00
2019-05-25T04:29:28.775Z,45.00
2019-05-25T04:30:28.789Z,45.00
2019-05-25T04:31:28.741Z,79.76
2019-05-25T04:32:28.761Z,96.34
2019-05-25T04:33:28.761Z,311.28
2019-05-25T04:34:28.760Z,315.00
2019-05-25T04:35:28.749Z,312.93
2019-05-25T04:36:28.766Z,306.92
2019-05-25T04:37:28.745Z,296.94
2019-05-25T04:38:28.766Z,285.55
2019-05-25T04:39:28.758Z,315.00
2019-05-25T04:40:28.758Z,315.00
2019-05-25T04:41:28.768Z,315.00
2019-05-25T04:42:28.763Z,315.00
2019-05-25T04:43:28.758Z,315.00
2019-05-25T04:44:28.729Z,315.00
2019-05-25T04:45:28.762Z,315.00
2019-05-25T04:46:28.782Z,315.00
2019-05-25T04:47:28.751Z,315.00
2019-05-25T04:48:28.772Z,315.00
2019-05-25T04:49:28.750Z,315.00
2019-05-25T04:50:28.773Z,315.00
2019-05-25T04:51:28.770Z,68.71
2019-05-25T04:52:28.784Z,78.51
2019-05-25T04:53:28.744Z,270.00
2019-05-25T04:54:28.786Z,270.00
2019-05-25T04:55:28.737Z,270.00
2019-05-25T04:56:39.041Z,270.00
2019-05-25T04:57:28.779Z,270.00
2019-05-25T04:58:28.777Z,270.00
2019-05-25T04:59:28.785Z,270.00
2019-05-25T05:00:28.767Z,270.00
2019-05-25T05:01:28.763Z,270.00
2019-05-25T05:02:28.773Z,270.00
2019-05-25T05:03:28.774Z,270.00
2019-05-25T05:04:28.766Z,270.00
2019-05-25T05:05:28.766Z,270.00
2019-05-25T05:06:28.779Z,270.00
2019-05-25T05:07:28.761Z,270.00
2019-05-25T05:08:28.768Z,270.00
2019-05-25T05:09:28.779Z,270.00
2019-05-25T05:10:28.787Z,270.00
2019-05-25T05:11:28.818Z,270.00
2019-05-25T05:12:28.782Z,270.00
2019-05-25T05:13:28.782Z,270.00
2019-05-25T05:14:28.762Z,90.00
2019-05-25T05:15:28.796Z,90.00
2019-05-25T05:16:28.791Z,90.00
2019-05-25T05:17:28.793Z,90.00
2019-05-25T05:18:28.822Z,90.00
2019-05-25T05:19:28.790Z,90.00
2019-05-25T05:20:28.756Z,90.00
2019-05-25T05:21:28.786Z,90.00
2019-05-25T05:22:28.806Z,90.00
2019-05-25T05:23:28.816Z,90.00
2019-05-25T05:24:28.785Z,90.00
2019-05-25T05:25:28.777Z,90.00
2019-05-25T05:26:28.791Z,90.00
2019-05-25T05:27:28.788Z,1.07
2019-05-25T05:28:28.797Z,315.00
2019-05-25T05:29:28.807Z,311.74
2019-05-25T05:30:28.807Z,308.36
2019-05-25T05:31:28.797Z,315.00
2019-05-25T05:32:28.785Z,315.00
2019-05-25T05:33:28.801Z,243.67
2019-05-25T05:34:28.795Z,261.11
2019-05-25T05:35:28.801Z,300.70
2019-05-25T05:36:28.797Z,315.00
2019-05-25T05:37:28.777Z,315.00
2019-05-25T05:38:28.809Z,315.00
2019-05-25T05:39:28.819Z,315.00
2019-05-25T05:40:28.816Z,315.00
2019-05-25T05:41:31.146Z,322.27
2019-05-25T05:42:28.805Z,135.00
2019-05-25T05:43:28.811Z,137.95
2019-05-25T05:44:28.918Z,43.74
2019-05-25T05:45:28.822Z,90.00
2019-05-25T05:46:28.809Z,90.00
2019-05-25T05:47:28.816Z,90.00
2019-05-25T05:48:28.816Z,90.00
2019-05-25T05:49:28.782Z,90.00
2019-05-25T05:50:28.829Z,90.00
2019-05-25T05:51:28.810Z,90.00
2019-05-25T05:52:28.804Z,90.00
2019-05-25T05:53:28.816Z,90.00
2019-05-25T05:54:28.811Z,90.00
2019-05-25T05:55:28.813Z,90.00
2019-05-25T05:56:28.823Z,90.00
2019-05-25T05:57:28.810Z,90.00
2019-05-25T05:58:28.815Z,90.00
2019-05-25T05:59:28.814Z,90.00
2019-05-25T06:00:28.908Z,90.00
2019-05-25T06:01:28.852Z,90.00
2019-05-25T06:02:28.918Z,90.00
2019-05-25T06:03:28.856Z,90.00
2019-05-25T06:04:29.060Z,90.00
2019-05-25T06:05:28.864Z,90.00
2019-05-25T06:06:28.931Z,90.00
2019-05-25T06:07:28.906Z,90.00
2019-05-25T06:08:28.887Z,90.00
2019-05-25T06:09:28.947Z,90.00
2019-05-25T06:10:28.933Z,90.00
2019-05-25T06:11:28.965Z,90.00
2019-05-25T06:12:28.990Z,90.00
2019-05-25T06:13:28.987Z,90.00
2019-05-25T06:14:28.990Z,90.00
2019-05-25T06:15:29.012Z,90.00
2019-05-25T06:16:29.020Z,90.00
2019-05-25T06:17:29.050Z,90.00
2019-05-25T06:18:29.059Z,90.00
2019-05-25T06:19:29.026Z,90.00
2019-05-25T06:20:29.047Z,54.73
2019-05-25T06:21:29.081Z,315.00
2019-05-25T06:22:29.079Z,315.00
2019-05-25T06:23:29.123Z,315.00
2019-05-25T06:24:29.111Z,315.00
2019-05-25T06:25:29.137Z,229.59
2019-05-25T06:26:29.126Z,313.01
2019-05-25T06:27:29.158Z,315.00
2019-05-25T06:28:29.157Z,315.00
2019-05-25T06:29:29.181Z,297.72
2019-05-25T06:30:29.190Z,270.00
2019-05-25T06:31:29.186Z,305.36
2019-05-25T06:32:29.177Z,315.00
2019-05-25T06:33:29.211Z,315.00
2019-05-25T06:34:29.267Z,315.00
2019-05-25T06:35:29.215Z,315.00
2019-05-25T06:36:29.260Z,315.00
2019-05-25T06:37:29.314Z,315.00
2019-05-25T06:38:29.276Z,315.00
2019-05-25T06:39:29.309Z,315.00
2019-05-25T06:40:29.283Z,315.87
2019-05-25T06:41:29.285Z,270.00
2019-05-25T06:42:29.333Z,270.00
2019-05-25T06:43:29.327Z,270.00
2019-05-25T06:44:29.358Z,270.00
2019-05-25T06:45:29.366Z,270.00
2019-05-25T06:46:29.363Z,81.87
2019-05-25T06:47:29.368Z,90.00
2019-05-25T06:48:29.385Z,96.54
2019-05-25T06:49:29.396Z,90.00
2019-05-25T06:50:29.427Z,90.00
2019-05-25T06:51:29.439Z,90.00
2019-05-25T06:52:29.425Z,66.57
2019-05-25T06:53:29.450Z,45.00
2019-05-25T06:54:29.470Z,45.00
2019-05-25T06:55:29.486Z,45.00
2019-05-25T06:56:29.495Z,45.00
2019-05-25T06:57:42.038Z,45.00
2019-05-25T06:58:29.488Z,45.00
2019-05-25T06:59:29.505Z,45.00
2019-05-25T07:00:29.506Z,45.00
2019-05-25T07:01:29.514Z,45.00
2019-05-25T07:02:29.484Z,45.00
2019-05-25T07:03:29.508Z,306.50
2019-05-25T07:04:29.489Z,284.33
2019-05-25T07:05:29.503Z,274.09
2019-05-25T07:06:29.536Z,278.57
2019-05-25T07:07:29.518Z,5.43
2019-05-25T07:08:29.494Z,86.78
2019-05-25T07:09:29.522Z,315.00
2019-05-25T07:10:29.498Z,285.55
2019-05-25T07:11:29.496Z,290.69
2019-05-25T07:12:29.529Z,230.93
2019-05-25T07:13:29.539Z,205.92
2019-05-25T07:14:29.491Z,152.20
2019-05-25T07:15:29.520Z,45.70
2019-05-25T07:16:29.510Z,90.00
2019-05-25T07:17:29.508Z,83.47
2019-05-25T07:18:29.538Z,315.00
2019-05-25T07:19:29.521Z,349.60
2019-05-25T07:20:29.517Z,105.50
2019-05-25T07:21:29.524Z,151.10
2019-05-25T07:22:29.527Z,261.40
2019-05-25T07:23:29.533Z,94.63
2019-05-25T07:24:29.557Z,122.13
2019-05-25T07:25:29.519Z,127.40
2019-05-25T07:26:29.521Z,89.08
2019-05-25T07:27:29.528Z,45.00
2019-05-25T07:28:29.522Z,43.84
2019-05-25T07:29:29.520Z,173.53
2019-05-25T07:30:29.522Z,104.72
2019-05-25T07:31:29.532Z,137.75
2019-05-25T07:32:29.521Z,92.14
2019-05-25T07:33:29.545Z,97.09
2019-05-25T07:34:29.540Z,90.00
2019-05-25T07:35:29.553Z,90.00
2019-05-25T07:36:29.542Z,90.00
2019-05-25T07:37:29.526Z,90.00
2019-05-25T07:38:29.526Z,83.76
2019-05-25T07:39:29.561Z,276.63
2019-05-25T07:40:29.555Z,12.85
2019-05-25T07:41:29.505Z,94.33
2019-05-25T07:42:29.555Z,270.73
2019-05-25T07:43:29.543Z,295.02
2019-05-25T07:44:29.544Z,298.95
2019-05-25T07:45:29.585Z,304.15
2019-05-25T07:46:29.552Z,227.04
2019-05-25T07:47:29.526Z,162.99
2019-05-25T07:48:29.543Z,204.16
2019-05-25T07:49:29.555Z,152.75
2019-05-25T07:50:29.541Z,98.00
2019-05-25T07:51:29.550Z,15.30
2019-05-25T07:52:29.567Z,161.65
2019-05-25T07:53:29.531Z,88.65
2019-05-25T07:54:29.558Z,295.69
2019-05-25T07:55:29.559Z,178.05
2019-05-25T07:56:29.543Z,276.75
2019-05-25T07:57:29.572Z,31.31
2019-05-25T07:58:29.548Z,65.08
2019-05-25T07:59:29.554Z,65.30
2019-05-25T08:00:29.565Z,42.10
2019-05-25T08:01:29.533Z,284.80
2019-05-25T08:02:29.562Z,312.53
2019-05-25T08:03:29.562Z,216.62
2019-05-25T08:04:29.537Z,87.07
2019-05-25T08:05:29.548Z,90.00
2019-05-25T08:06:29.610Z,116.54
2019-05-25T08:07:29.567Z,319.56
2019-05-25T08:08:29.564Z,4.79
2019-05-25T08:09:29.567Z,107.80
2019-05-25T08:10:29.549Z,359.32
2019-05-25T08:11:29.564Z,110.93
2019-05-25T08:12:29.611Z,264.53
2019-05-25T08:13:29.569Z,162.44
2019-05-25T08:14:29.572Z,74.83
2019-05-25T08:15:29.568Z,123.14
2019-05-25T08:16:29.545Z,90.00
2019-05-25T08:17:29.594Z,90.00
2019-05-25T08:18:29.574Z,97.55
2019-05-25T08:19:29.549Z,90.00
2019-05-25T08:20:29.578Z,220.14
2019-05-25T08:21:29.585Z,119.74
2019-05-25T08:22:29.590Z,78.69
2019-05-25T08:23:29.565Z,350.19
2019-05-25T08:24:29.583Z,315.00
2019-05-25T08:25:29.560Z,278.99
2019-05-25T08:26:29.595Z,107.12
2019-05-25T08:27:29.626Z,45.36
2019-05-25T08:28:32.775Z,180.00
2019-05-25T08:29:29.596Z,197.00
2019-05-25T08:30:29.606Z,315.01
2019-05-25T08:31:29.608Z,20.08
2019-05-25T08:32:29.587Z,304.71
2019-05-25T08:33:29.614Z,85.25
2019-05-25T08:34:29.598Z,325.57
2019-05-25T08:35:29.584Z,298.07
2019-05-25T08:36:29.903Z,291.95
2019-05-25T08:37:29.602Z,289.67
2019-05-25T08:38:29.633Z,301.72
2019-05-25T08:39:29.614Z,300.49
2019-05-25T08:40:29.583Z,286.34
2019-05-25T08:41:29.578Z,298.34
2019-05-25T08:42:29.605Z,272.54
2019-05-25T08:43:29.611Z,286.55
2019-05-25T08:44:29.578Z,277.03
2019-05-25T08:45:29.602Z,272.07
2019-05-25T08:46:29.603Z,273.20
2019-05-25T08:47:29.603Z,286.78
2019-05-25T08:48:29.622Z,316.40
2019-05-25T08:49:29.607Z,287.14
2019-05-25T08:50:38.223Z,205.33
2019-05-25T08:51:29.615Z,100.83
2019-05-25T08:52:29.596Z,127.10
2019-05-25T08:53:40.716Z,235.32
2019-05-25T08:54:29.636Z,173.43
2019-05-25T08:55:29.619Z,104.97
2019-05-25T08:56:29.610Z,119.09
2019-05-25T08:57:29.625Z,90.00
2019-05-25T08:58:29.605Z,320.01
2019-05-25T08:59:29.616Z,342.79
2019-05-25T09:00:29.637Z,200.90
2019-05-25T09:01:29.631Z,253.42
2019-05-25T09:02:29.619Z,328.29
2019-05-25T09:03:29.640Z,110.45
2019-05-25T09:04:29.607Z,225.25
2019-05-25T09:05:29.624Z,311.69
2019-05-25T09:06:29.663Z,252.32
2019-05-25T09:07:29.642Z,309.60
2019-05-25T09:08:29.629Z,152.01
2019-05-25T09:09:29.641Z,298.89
2019-05-25T09:10:29.644Z,303.80
2019-05-25T09:11:29.655Z,330.83
2019-05-25T09:12:29.644Z,225.00
2019-05-25T09:13:29.627Z,276.87
2019-05-25T09:14:29.628Z,9.01
2019-05-25T09:15:29.645Z,93.74
2019-05-25T09:16:29.642Z,92.73
2019-05-25T09:17:29.621Z,109.90
2019-05-25T09:18:29.638Z,99.60
2019-05-25T09:19:29.629Z,99.06
2019-05-25T09:20:29.616Z,100.55
2019-05-25T09:21:29.675Z,90.00
2019-05-25T09:22:29.670Z,63.13
2019-05-25T09:23:29.627Z,165.80
2019-05-25T09:24:29.650Z,345.02
2019-05-25T09:25:29.655Z,25.67
2019-05-25T09:26:29.637Z,140.29
2019-05-25T09:27:29.669Z,92.40
2019-05-25T09:28:29.635Z,122.52
2019-05-25T09:29:29.674Z,89.96
2019-05-25T09:30:29.647Z,276.87
2019-05-25T09:31:29.638Z,280.78
2019-05-25T09:32:29.756Z,291.37
2019-05-25T09:33:29.656Z,291.59
2019-05-25T09:34:29.650Z,331.48
2019-05-25T09:35:29.636Z,9.07
2019-05-25T09:36:29.675Z,306.59
2019-05-25T09:37:29.674Z,346.60
2019-05-25T09:38:29.639Z,87.13
2019-05-25T09:39:29.687Z,346.64
2019-05-25T09:40:29.644Z,122.43
2019-05-25T09:41:29.662Z,94.93
2019-05-25T09:42:29.695Z,271.35
2019-05-25T09:43:29.653Z,324.55
2019-05-25T09:44:29.659Z,76.89
2019-05-25T09:45:29.680Z,125.52
2019-05-25T09:46:29.662Z,217.57
2019-05-25T09:47:29.669Z,276.25
2019-05-25T09:48:29.679Z,147.59
2019-05-25T09:49:29.672Z,128.60
2019-05-25T09:50:29.677Z,126.44
2019-05-25T09:51:29.682Z,133.82
2019-05-25T09:52:29.730Z,167.86
2019-05-25T09:53:29.664Z,234.37
2019-05-25T09:54:29.676Z,21.28
2019-05-25T09:55:29.673Z,93.95
2019-05-25T09:56:29.690Z,144.26
2019-05-25T09:57:29.721Z,301.51
2019-05-25T09:58:29.670Z,316.36
2019-05-25T09:59:29.662Z,314.13
2019-05-25T10:00:29.710Z,284.28
2019-05-25T10:01:29.673Z,267.61
2019-05-25T10:02:29.707Z,274.80
2019-05-25T10:03:29.710Z,237.75
2019-05-25T10:04:29.682Z,189.32
2019-05-25T10:05:29.666Z,27.79
2019-05-25T10:06:29.695Z,269.53
2019-05-25T10:07:29.704Z,266.86
2019-05-25T10:08:29.693Z,53.37
2019-05-25T10:09:29.682Z,39.93
2019-05-25T10:10:29.679Z,97.83
2019-05-25T10:11:29.686Z,73.28
2019-05-25T10:12:29.718Z,90.89
2019-05-25T10:13:29.712Z,140.50
2019-05-25T10:14:29.725Z,249.93
2019-05-25T10:15:29.752Z,93.82
2019-05-25T10:16:29.696Z,90.00
2019-05-25T10:17:29.759Z,89.23
2019-05-25T10:18:29.724Z,140.85
2019-05-25T10:19:29.827Z,135.95
2019-05-25T10:20:29.718Z,61.00
2019-05-25T10:21:29.835Z,108.36
2019-05-25T10:22:29.716Z,220.18
2019-05-25T10:23:29.691Z,218.79
2019-05-25T10:24:29.713Z,213.06
2019-05-25T10:25:29.762Z,162.26
2019-05-25T10:26:29.722Z,109.65
2019-05-25T10:27:29.775Z,109.90
2019-05-25T10:28:29.714Z,128.56
2019-05-25T10:29:36.999Z,125.48
2019-05-25T10:30:29.726Z,194.33
2019-05-25T10:31:29.726Z,91.15
2019-05-25T10:32:29.738Z,88.84
2019-05-25T10:33:29.722Z,346.87
2019-05-25T10:34:29.711Z,171.47
2019-05-25T10:35:29.702Z,122.52
2019-05-25T10:36:29.736Z,142.05
2019-05-25T10:37:29.736Z,120.39
2019-05-25T10:38:29.743Z,133.05
2019-05-25T10:39:29.740Z,105.20
2019-05-25T10:40:29.723Z,131.85
2019-05-25T10:41:29.703Z,173.56
2019-05-25T10:42:29.736Z,93.00
2019-05-25T10:43:29.750Z,117.11
2019-05-25T10:44:29.759Z,121.98
2019-05-25T10:45:29.759Z,159.95
2019-05-25T10:46:29.795Z,269.13
2019-05-25T10:47:29.764Z,92.73
2019-05-25T10:48:29.734Z,258.28
2019-05-25T10:49:29.797Z,167.11
2019-05-25T10:50:29.762Z,211.82
2019-05-25T10:51:29.846Z,241.57
2019-05-25T10:52:29.732Z,203.35
2019-05-25T10:53:29.762Z,143.27
2019-05-25T10:54:29.758Z,151.75
2019-05-25T10:55:29.775Z,112.86
2019-05-25T10:56:29.765Z,101.82
2019-05-25T10:57:29.795Z,142.58
2019-05-25T10:58:29.724Z,293.33
2019-05-25T10:59:29.721Z,94.02
2019-05-25T11:00:29.758Z,153.11
2019-05-25T11:01:29.760Z,103.78
2019-05-25T11:02:29.747Z,144.76
2019-05-25T11:03:29.763Z,120.32
2019-05-25T11:04:29.739Z,110.61
2019-05-25T11:05:29.754Z,139.58
2019-05-25T11:06:29.774Z,136.83
2019-05-25T11:07:29.864Z,117.59
2019-05-25T11:08:29.767Z,131.99
2019-05-25T11:09:29.760Z,204.27
2019-05-25T11:10:29.749Z,144.32
2019-05-25T11:11:29.763Z,308.26
2019-05-25T11:12:29.771Z,106.46
2019-05-25T11:13:29.770Z,107.12
2019-05-25T11:14:29.767Z,111.07
2019-05-25T11:15:29.778Z,315.00
2019-05-25T11:16:29.757Z,40.10
2019-05-25T11:17:29.766Z,106.50
2019-05-25T11:18:29.778Z,186.60
2019-05-25T11:19:29.785Z,93.99
2019-05-25T11:20:29.803Z,119.03
2019-05-25T11:21:29.769Z,124.74
2019-05-25T11:22:29.767Z,223.04
2019-05-25T11:23:29.791Z,277.46
2019-05-25T11:24:29.786Z,195.29
2019-05-25T11:25:29.797Z,232.50
2019-05-25T11:26:29.790Z,179.42
2019-05-25T11:27:29.796Z,171.73
2019-05-25T11:28:29.768Z,145.52
2019-05-25T11:29:29.784Z,143.79
2019-05-25T11:30:29.796Z,261.88
2019-05-25T11:31:29.858Z,201.60
2019-05-25T11:32:29.780Z,245.78
2019-05-25T11:33:29.844Z,283.29
2019-05-25T11:34:29.938Z,278.86
2019-05-25T11:35:29.798Z,0.13
2019-05-25T11:36:29.801Z,178.55
2019-05-25T11:37:29.805Z,62.04
2019-05-25T11:38:29.804Z,87.06
2019-05-25T11:39:29.802Z,217.66
2019-05-25T11:40:29.820Z,81.60
2019-05-25T11:41:29.776Z,101.00
2019-05-25T11:42:29.799Z,135.73
2019-05-25T11:43:29.802Z,95.64
2019-05-25T11:44:29.824Z,66.56
2019-05-25T11:45:29.806Z,132.80
2019-05-25T11:46:29.832Z,119.03
2019-05-25T11:47:29.798Z,145.44
2019-05-25T11:48:29.813Z,105.52
2019-05-25T11:49:29.824Z,248.10
2019-05-25T11:50:29.828Z,127.79
2019-05-25T11:51:29.828Z,100.94
2019-05-25T11:52:29.810Z,172.80
2019-05-25T11:53:29.810Z,94.15
2019-05-25T11:54:29.814Z,107.09
2019-05-25T11:55:29.828Z,75.25
2019-05-25T11:56:29.832Z,201.35
2019-05-25T11:57:29.837Z,168.13
2019-05-25T11:58:29.810Z,191.08
2019-05-25T11:59:29.795Z,212.52
2019-05-25T12:00:29.824Z,162.59
2019-05-25T12:01:29.809Z,144.53
2019-05-25T12:02:29.836Z,183.40
2019-05-25T12:03:29.829Z,195.19
2019-05-25T12:04:29.812Z,230.07
2019-05-25T12:05:29.821Z,228.41
2019-05-25T12:06:29.829Z,163.88
2019-05-25T12:07:29.833Z,275.51
2019-05-25T12:08:29.845Z,303.87
2019-05-25T12:09:29.849Z,311.75
2019-05-25T12:10:29.810Z,139.23
2019-05-25T12:11:29.846Z,243.87
2019-05-25T12:12:29.856Z,139.06
2019-05-25T12:13:32.086Z,148.53
2019-05-25T12:14:29.853Z,286.27
2019-05-25T12:15:29.830Z,62.86
2019-05-25T12:16:29.845Z,304.33
2019-05-25T12:17:29.824Z,331.87
2019-05-25T12:18:29.845Z,59.90
2019-05-25T12:19:29.863Z,92.76
2019-05-25T12:20:29.853Z,151.84
2019-05-25T12:21:29.864Z,105.59
2019-05-25T12:22:29.832Z,191.03
2019-05-25T12:23:29.835Z,120.04
2019-05-25T12:24:29.850Z,194.36
2019-05-25T12:25:29.858Z,160.68
2019-05-25T12:26:29.861Z,248.59
2019-05-25T12:27:29.862Z,248.94
2019-05-25T12:28:29.829Z,175.64
2019-05-25T12:29:29.839Z,182.70
2019-05-25T12:30:40.210Z,149.05
2019-05-25T12:31:29.870Z,125.19
2019-05-25T12:32:29.870Z,193.11
2019-05-25T12:33:29.865Z,134.25
2019-05-25T12:34:29.891Z,130.65